createdAt,value
2019-03-09T00:01:02.218Z,7.20
2019-03-09T00:03:31.517Z,7.20
2019-03-09T00:05:58.861Z,7.20
2019-03-09T00:08:26.305Z,7.20
2019-03-09T00:10:56.548Z,7.20
2019-03-09T00:13:24.047Z,7.10
2019-03-09T00:15:51.480Z,7.10
2019-03-09T00:18:21.535Z,7.10
2019-03-09T00:20:49.059Z,7.10
2019-03-09T00:23:35.059Z,7.10
2019-03-09T00:26:16.872Z,7.10
2019-03-09T00:28:55.560Z,7.10
2019-03-09T00:31:33.733Z,7.00
2019-03-09T00:34:01.066Z,7.00
2019-03-09T00:36:28.330Z,7.00
2019-03-09T00:38:55.577Z,7.00
2019-03-09T00:41:22.853Z,7.00
2019-03-09T00:43:50.121Z,7.00
2019-03-09T00:46:17.372Z,7.00
2019-03-09T00:48:45.055Z,7.00
2019-03-09T00:51:12.490Z,7.00
2019-03-09T00:53:41.267Z,7.00
2019-03-09T00:56:08.565Z,7.00
2019-03-09T00:58:36.973Z,6.90
2019-03-09T01:01:04.184Z,7.00
2019-03-09T01:03:32.721Z,7.00
2019-03-09T01:06:01.491Z,7.00
2019-03-09T01:08:29.098Z,7.00
2019-03-09T01:10:56.410Z,7.00
2019-03-09T01:13:23.656Z,7.00
2019-03-09T01:15:51.559Z,7.00
2019-03-09T01:18:19.430Z,7.10
2019-03-09T01:20:47.053Z,7.10
2019-03-09T01:23:14.328Z,7.10
2019-03-09T01:25:41.704Z,7.10
2019-03-09T01:28:08.954Z,7.10
2019-03-09T01:30:36.174Z,7.20
2019-03-09T01:33:03.561Z,7.20
2019-03-09T01:35:30.858Z,7.20
2019-03-09T01:37:58.193Z,7.20
2019-03-09T01:40:25.440Z,7.20
2019-03-09T01:42:53.449Z,7.20
2019-03-09T01:45:21.150Z,7.20
2019-03-09T01:47:48.871Z,7.30
2019-03-09T01:50:16.609Z,7.20
2019-03-09T01:52:44.343Z,7.20
2019-03-09T01:55:11.726Z,7.30
2019-03-09T01:57:39.065Z,7.30
2019-03-09T02:00:08.198Z,7.30
2019-03-09T02:02:37.487Z,7.30
2019-03-09T02:05:05.571Z,7.30
2019-03-09T02:07:34.762Z,7.30
2019-03-09T02:10:02.126Z,7.30
2019-03-09T02:12:31.164Z,7.30
2019-03-09T02:14:58.364Z,7.30
2019-03-09T02:17:26.820Z,7.30
2019-03-09T02:19:54.579Z,7.30
2019-03-09T02:22:21.893Z,7.30
2019-03-09T02:24:50.311Z,7.30
2019-03-09T02:27:18.909Z,7.30
2019-03-09T02:29:46.225Z,7.30
2019-03-09T02:32:13.704Z,7.30
2019-03-09T02:34:43.151Z,7.40
2019-03-09T02:37:12.663Z,7.40
2019-03-09T02:40:05.636Z,7.40
2019-03-09T02:42:32.828Z,7.40
2019-03-09T02:45:01.358Z,7.40
2019-03-09T02:47:28.888Z,7.40
2019-03-09T02:49:56.434Z,7.40
2019-03-09T02:52:23.837Z,7.40
2019-03-09T02:54:51.471Z,7.40
2019-03-09T02:57:19.255Z,7.40
2019-03-09T02:59:46.765Z,7.40
2019-03-09T03:02:23.651Z,7.50
2019-03-09T03:04:50.991Z,7.50
2019-03-09T03:07:19.626Z,7.40
2019-03-09T03:09:47.569Z,7.40
2019-03-09T03:12:15.069Z,7.50
2019-03-09T03:14:42.691Z,7.50
2019-03-09T03:17:09.911Z,7.50
2019-03-09T03:19:37.248Z,7.50
2019-03-09T03:22:04.705Z,7.50
2019-03-09T03:24:31.963Z,7.50
2019-03-09T03:26:59.362Z,7.50
2019-03-09T03:29:28.162Z,7.50
2019-03-09T03:31:55.729Z,7.50
2019-03-09T03:34:23.287Z,7.50
2019-03-09T03:36:50.503Z,7.50
2019-03-09T03:39:17.953Z,7.50
2019-03-09T03:41:46.998Z,7.50
2019-03-09T03:44:14.255Z,7.50
2019-03-09T03:46:43.651Z,7.50
2019-03-09T03:49:11.127Z,7.50
2019-03-09T03:51:40.185Z,7.50
2019-03-09T03:54:07.739Z,7.50
2019-03-09T03:56:35.126Z,7.50
2019-03-09T03:59:02.348Z,7.50
2019-03-09T04:01:30.809Z,7.50
2019-03-09T04:03:59.730Z,7.50
2019-03-09T04:06:28.687Z,7.50
2019-03-09T04:08:56.137Z,7.50
2019-03-09T04:11:23.765Z,7.40
2019-03-09T04:13:51.074Z,7.50
2019-03-09T04:16:18.502Z,7.50
2019-03-09T04:18:45.877Z,7.50
2019-03-09T04:21:13.220Z,7.50
2019-03-09T04:23:41.591Z,7.50
2019-03-09T04:26:09.123Z,7.50
2019-03-09T04:28:37.828Z,7.50
2019-03-09T04:31:05.454Z,7.40
2019-03-09T04:33:34.825Z,7.40
2019-03-09T04:36:03.118Z,7.40
2019-03-09T04:38:30.526Z,7.40
2019-03-09T04:40:57.841Z,7.40
2019-03-09T04:43:25.392Z,7.40
2019-03-09T04:45:55.117Z,7.40
2019-03-09T04:48:22.274Z,7.40
2019-03-09T04:50:49.398Z,7.40
2019-03-09T04:53:16.620Z,7.30
2019-03-09T04:55:44.210Z,7.30
2019-03-09T04:58:11.562Z,7.30
2019-03-09T05:00:39.167Z,7.30
2019-03-09T05:03:06.454Z,7.30
2019-03-09T05:05:34.952Z,7.30
2019-03-09T05:08:26.978Z,7.30
2019-03-09T05:10:58.267Z,7.20
2019-03-09T05:13:55.072Z,7.20
2019-03-09T05:16:22.575Z,7.20
2019-03-09T05:18:49.816Z,7.20
2019-03-09T05:21:17.737Z,7.10
2019-03-09T05:23:47.846Z,7.10
2019-03-09T05:26:15.162Z,7.10
2019-03-09T05:28:43.325Z,7.10
2019-03-09T05:31:10.934Z,7.10
2019-03-09T05:33:38.250Z,7.00
2019-03-09T05:36:05.642Z,7.00
2019-03-09T05:38:33.308Z,7.00
2019-03-09T05:41:00.659Z,6.90
2019-03-09T05:43:29.576Z,6.90
2019-03-09T05:45:57.394Z,6.80
2019-03-09T05:48:24.931Z,6.80
2019-03-09T05:50:52.491Z,6.80
2019-03-09T05:53:22.439Z,6.80
2019-03-09T05:55:49.735Z,6.70
2019-03-09T05:58:18.034Z,6.60
2019-03-09T06:00:45.907Z,6.60
2019-03-09T06:03:13.524Z,6.60
2019-03-09T06:05:46.092Z,6.60
2019-03-09T06:08:13.449Z,6.60
2019-03-09T06:10:41.058Z,6.50
2019-03-09T06:13:08.473Z,6.50
2019-03-09T06:15:36.109Z,6.50
2019-03-09T06:18:03.561Z,6.50
2019-03-09T06:20:30.871Z,6.50
2019-03-09T06:22:58.117Z,6.50
2019-03-09T06:25:27.274Z,6.50
2019-03-09T06:27:54.814Z,6.60
2019-03-09T06:30:22.535Z,6.60
2019-03-09T06:33:20.770Z,6.50
2019-03-09T06:35:51.523Z,6.50
2019-03-09T06:38:54.610Z,6.60
2019-03-09T06:41:50.518Z,6.60
2019-03-09T06:44:17.859Z,6.60
2019-03-09T06:46:45.430Z,6.60
2019-03-09T06:49:12.723Z,6.60
2019-03-09T06:51:40.098Z,6.60
2019-03-09T06:54:08.566Z,6.60
2019-03-09T06:56:37.697Z,6.60
2019-03-09T06:59:06.343Z,6.70
2019-03-09T07:01:33.770Z,6.60
2019-03-09T07:04:01.148Z,6.60
2019-03-09T07:06:28.593Z,6.70
2019-03-09T07:08:55.853Z,6.80
2019-03-09T07:11:23.317Z,6.70
2019-03-09T07:13:53.162Z,6.80
2019-03-09T07:16:20.565Z,6.80
2019-03-09T07:18:49.399Z,6.80
2019-03-09T07:21:16.898Z,6.90
2019-03-09T07:23:44.370Z,6.90
2019-03-09T07:26:12.247Z,6.90
2019-03-09T07:28:40.928Z,7.00
2019-03-09T07:31:08.918Z,7.00
2019-03-09T07:33:36.365Z,7.00
2019-03-09T07:36:04.027Z,7.00
2019-03-09T07:38:32.912Z,7.00
2019-03-09T07:41:00.200Z,7.10
2019-03-09T07:43:27.667Z,7.10
2019-03-09T07:45:54.982Z,7.10
2019-03-09T07:48:22.436Z,7.20
2019-03-09T07:50:49.786Z,7.20
2019-03-09T07:53:18.753Z,7.30
2019-03-09T07:55:46.161Z,7.30
2019-03-09T07:58:13.513Z,7.30
2019-03-09T08:00:40.851Z,7.40
2019-03-09T08:03:08.322Z,7.40
2019-03-09T08:05:35.814Z,7.50
2019-03-09T08:08:03.016Z,7.50
2019-03-09T08:10:30.255Z,7.60
2019-03-09T08:12:57.563Z,7.60
2019-03-09T08:15:25.169Z,7.70
2019-03-09T08:17:52.538Z,7.70
2019-03-09T08:20:20.157Z,7.80
2019-03-09T08:22:47.781Z,7.90
2019-03-09T08:25:15.462Z,7.90
2019-03-09T08:27:42.891Z,8.00
2019-03-09T08:30:14.706Z,8.00
2019-03-09T08:32:43.237Z,8.00
2019-03-09T08:35:10.675Z,8.00
2019-03-09T08:37:39.474Z,8.10
2019-03-09T08:40:08.093Z,8.20
2019-03-09T08:42:36.075Z,8.20
2019-03-09T08:45:04.021Z,8.30
2019-03-09T08:47:31.673Z,8.20
2019-03-09T08:50:01.255Z,8.30
2019-03-09T08:52:28.647Z,8.30
2019-03-09T08:54:56.698Z,8.40
2019-03-09T08:57:25.570Z,8.30
2019-03-09T08:59:52.987Z,8.40
2019-03-09T09:02:20.406Z,8.40
2019-03-09T09:04:48.285Z,8.40
2019-03-09T09:07:18.295Z,8.50
2019-03-09T09:09:46.576Z,8.50
2019-03-09T09:12:14.462Z,8.50
2019-03-09T09:14:41.685Z,8.50
2019-03-09T09:17:09.361Z,8.60
2019-03-09T09:19:37.689Z,8.60
2019-03-09T09:22:06.904Z,8.50
2019-03-09T09:24:34.417Z,8.60
2019-03-09T09:27:01.801Z,8.60
2019-03-09T09:29:29.470Z,8.60
2019-03-09T09:31:59.376Z,8.60
2019-03-09T09:34:28.050Z,8.60
2019-03-09T09:36:56.203Z,8.70
2019-03-09T09:39:23.575Z,8.70
2019-03-09T09:41:50.971Z,8.80
2019-03-09T09:44:18.216Z,8.80
2019-03-09T09:46:45.579Z,8.70
2019-03-09T09:49:12.821Z,8.80
2019-03-09T09:51:40.055Z,8.80
2019-03-09T09:54:07.488Z,8.90
2019-03-09T09:56:34.802Z,8.90
2019-03-09T09:59:03.181Z,8.90
2019-03-09T10:01:30.575Z,8.90
2019-03-09T10:03:57.927Z,8.90
2019-03-09T10:06:25.159Z,8.90
2019-03-09T10:08:52.401Z,8.90
2019-03-09T10:11:19.613Z,8.90
2019-03-09T10:13:47.585Z,8.90
2019-03-09T10:16:15.149Z,8.90
2019-03-09T10:18:42.538Z,8.90
2019-03-09T10:21:09.767Z,8.90
2019-03-09T10:23:37.006Z,8.90
2019-03-09T10:26:04.225Z,8.90
2019-03-09T10:28:32.475Z,8.90
2019-03-09T10:30:59.823Z,9.00
2019-03-09T10:33:27.109Z,9.00
2019-03-09T10:35:55.356Z,9.00
2019-03-09T10:38:22.585Z,9.00
2019-03-09T10:40:49.960Z,9.00
2019-03-09T10:43:17.071Z,9.00
2019-03-09T10:45:44.267Z,9.10
2019-03-09T10:48:12.210Z,9.10
2019-03-09T10:50:39.611Z,9.10
2019-03-09T10:53:07.076Z,9.10
2019-03-09T10:55:34.538Z,9.10
2019-03-09T10:58:01.913Z,9.20
2019-03-09T11:00:30.534Z,9.20
2019-03-09T11:02:57.625Z,9.20
2019-03-09T11:05:24.890Z,9.20
2019-03-09T11:07:52.479Z,9.20
2019-03-09T11:10:19.860Z,9.20
2019-03-09T11:12:47.225Z,9.20
2019-03-09T11:15:14.833Z,9.20
2019-03-09T11:17:42.196Z,9.20
2019-03-09T11:20:10.683Z,9.20
2019-03-09T11:22:38.070Z,9.30
2019-03-09T11:25:07.125Z,9.20
2019-03-09T11:27:34.585Z,9.20
2019-03-09T11:30:01.972Z,9.30
2019-03-09T11:32:29.425Z,9.30
2019-03-09T11:34:56.958Z,9.30
2019-03-09T11:37:24.355Z,9.30
2019-03-09T11:39:53.867Z,9.50
2019-03-09T11:42:22.578Z,9.50
2019-03-09T11:44:49.945Z,9.40
2019-03-09T11:47:17.209Z,9.40
2019-03-09T11:49:44.501Z,9.40
2019-03-09T11:52:19.607Z,9.50
2019-03-09T11:54:41.262Z,9.50
2019-03-09T11:57:08.954Z,9.50
2019-03-09T11:59:36.527Z,9.50
2019-03-09T12:02:03.982Z,9.50
2019-03-09T12:04:31.240Z,9.50
2019-03-09T12:06:58.548Z,9.50
2019-03-09T12:09:25.883Z,9.50
2019-03-09T12:11:59.743Z,9.50
2019-03-09T12:14:27.333Z,9.50
2019-03-09T12:16:56.730Z,9.50
2019-03-09T12:19:24.128Z,9.50
2019-03-09T12:21:51.488Z,9.50
2019-03-09T12:24:19.959Z,9.50
2019-03-09T12:26:47.625Z,9.50
2019-03-09T12:29:14.729Z,9.50
2019-03-09T12:31:42.018Z,9.50
2019-03-09T12:34:09.335Z,9.50
2019-03-09T12:36:36.970Z,9.50
2019-03-09T12:39:06.782Z,9.50
2019-03-09T12:41:34.376Z,9.50
2019-03-09T12:44:01.800Z,9.50
2019-03-09T12:46:29.457Z,9.60
2019-03-09T12:48:57.086Z,9.60
2019-03-09T12:51:24.748Z,9.60
2019-03-09T12:53:52.138Z,9.60
2019-03-09T12:56:19.713Z,9.60
2019-03-09T12:58:47.563Z,9.60
2019-03-09T13:01:15.074Z,9.60
2019-03-09T13:03:42.577Z,9.70
2019-03-09T13:06:10.438Z,9.70
2019-03-09T13:08:37.655Z,9.70
2019-03-09T13:11:04.991Z,9.80
2019-03-09T13:13:32.382Z,9.80
2019-03-09T13:15:59.625Z,9.90
2019-03-09T13:18:26.885Z,9.90
2019-03-09T13:20:54.294Z,10.00
2019-03-09T13:23:21.882Z,10.00
2019-03-09T13:25:49.091Z,10.10
2019-03-09T13:28:16.294Z,10.10
2019-03-09T13:30:43.411Z,10.20
2019-03-09T13:33:10.793Z,10.20
2019-03-09T13:35:37.980Z,10.30
2019-03-09T13:38:05.330Z,10.30
2019-03-09T13:40:32.587Z,10.30
2019-03-09T13:42:59.824Z,10.30
2019-03-09T13:45:27.024Z,10.40
2019-03-09T13:47:54.359Z,10.40
2019-03-09T13:50:21.557Z,10.40
2019-03-09T13:52:49.413Z,10.40
2019-03-09T13:55:16.530Z,10.40
2019-03-09T13:57:43.777Z,10.40
2019-03-09T14:00:12.708Z,10.30
2019-03-09T14:02:39.901Z,10.40
2019-03-09T14:05:07.884Z,10.30
2019-03-09T14:07:35.084Z,10.30
2019-03-09T14:10:02.661Z,10.20
2019-03-09T14:12:31.135Z,10.20
2019-03-09T14:14:58.268Z,10.10
2019-03-09T14:17:25.502Z,10.10
2019-03-09T14:19:53.302Z,10.00
2019-03-09T14:22:20.912Z,10.00
2019-03-09T14:24:48.007Z,9.90
2019-03-09T14:27:15.379Z,9.90
2019-03-09T14:29:42.719Z,9.90
2019-03-09T14:32:09.911Z,9.90
2019-03-09T14:34:37.017Z,9.80
2019-03-09T14:37:04.248Z,9.80
2019-03-09T14:39:31.328Z,9.80
2019-03-09T14:41:58.537Z,9.80
2019-03-09T14:44:25.765Z,9.80
2019-03-09T14:46:53.265Z,9.80
2019-03-09T14:49:20.617Z,9.80
2019-03-09T14:51:47.877Z,9.80
2019-03-09T14:54:15.098Z,9.80
2019-03-09T14:56:42.445Z,9.80
2019-03-09T14:59:09.655Z,9.80
2019-03-09T15:01:37.010Z,9.80
2019-03-09T15:04:04.271Z,9.80
2019-03-09T15:06:31.774Z,9.80
2019-03-09T15:08:59.002Z,9.80
2019-03-09T15:11:26.327Z,9.80
2019-03-09T15:13:55.715Z,9.80
2019-03-09T15:16:22.643Z,9.80
2019-03-09T15:18:50.117Z,9.80
2019-03-09T15:21:17.267Z,9.90
2019-03-09T15:23:44.798Z,9.90
2019-03-09T15:26:12.221Z,9.80
2019-03-09T15:28:39.412Z,9.80
2019-03-09T15:31:06.668Z,9.70
2019-03-09T15:33:34.034Z,9.70
2019-03-09T15:36:02.236Z,9.70
2019-03-09T15:38:29.313Z,9.70
2019-03-09T15:40:56.908Z,9.70
2019-03-09T15:43:24.250Z,9.70
2019-03-09T15:45:51.699Z,9.70
2019-03-09T15:48:19.063Z,9.70
2019-03-09T15:50:46.450Z,9.70
2019-03-09T15:53:13.674Z,9.70
2019-03-09T15:55:41.117Z,9.70
2019-03-09T15:58:08.475Z,9.70
2019-03-09T16:00:35.685Z,9.70
2019-03-09T16:03:04.216Z,9.70
2019-03-09T16:05:31.671Z,9.70
2019-03-09T16:07:58.906Z,9.70
2019-03-09T16:10:26.103Z,9.70
2019-03-09T16:12:53.548Z,9.70
2019-03-09T16:15:20.725Z,9.80
2019-03-09T16:17:47.985Z,9.80
2019-03-09T16:20:15.657Z,9.80
2019-03-09T16:22:42.900Z,9.80
2019-03-09T16:25:11.482Z,9.80
2019-03-09T16:27:38.833Z,9.80
2019-03-09T16:30:07.659Z,9.80
2019-03-09T16:32:34.997Z,9.80
2019-03-09T16:35:02.567Z,9.80
2019-03-09T16:37:30.050Z,9.80
2019-03-09T16:39:57.218Z,9.80
2019-03-09T16:42:24.801Z,9.70
2019-03-09T16:44:52.338Z,9.70
2019-03-09T16:47:19.545Z,9.70
2019-03-09T16:49:46.738Z,9.70
2019-03-09T16:52:13.959Z,9.70
2019-03-09T16:54:41.148Z,9.70
2019-03-09T16:57:08.530Z,9.60
2019-03-09T16:59:35.680Z,9.60
2019-03-09T17:02:02.850Z,9.60
2019-03-09T17:04:30.057Z,9.60
2019-03-09T17:06:57.397Z,9.60
2019-03-09T17:09:25.393Z,9.60
2019-03-09T17:11:52.719Z,9.50
2019-03-09T17:14:20.089Z,9.50
2019-03-09T17:16:47.465Z,9.50
2019-03-09T17:19:14.696Z,9.40
2019-03-09T17:21:42.113Z,9.50
2019-03-09T17:24:09.870Z,9.40
2019-03-09T17:26:36.998Z,9.40
2019-03-09T17:29:04.491Z,9.40
2019-03-09T17:31:31.830Z,9.40
2019-03-09T17:33:59.513Z,9.40
2019-03-09T17:36:26.767Z,9.40
2019-03-09T17:38:53.817Z,9.40
2019-03-09T17:41:21.007Z,9.40
2019-03-09T17:43:48.385Z,9.40
2019-03-09T17:46:15.695Z,9.40
2019-03-09T17:48:42.762Z,9.40
2019-03-09T17:51:10.028Z,9.30
2019-03-09T17:53:37.527Z,9.30
2019-03-09T17:56:04.901Z,9.30
2019-03-09T17:58:32.171Z,9.30
2019-03-09T18:00:59.441Z,9.30
2019-03-09T18:03:26.914Z,9.30
2019-03-09T18:05:54.056Z,9.30
2019-03-09T18:08:21.297Z,9.30
2019-03-09T18:10:52.144Z,9.40
2019-03-09T18:13:19.232Z,9.40
2019-03-09T18:15:46.363Z,9.40
2019-03-09T18:18:13.455Z,9.40
2019-03-09T18:20:40.701Z,9.40
2019-03-09T18:23:08.045Z,9.40
2019-03-09T18:25:35.391Z,9.40
2019-03-09T18:28:02.659Z,9.40
2019-03-09T18:30:29.715Z,9.40
2019-03-09T18:32:57.409Z,9.40
2019-03-09T18:35:24.741Z,9.40
2019-03-09T18:37:52.085Z,9.40
2019-03-09T18:40:19.428Z,9.40
2019-03-09T18:42:46.834Z,9.40
2019-03-09T18:45:14.936Z,9.40
2019-03-09T18:47:42.290Z,9.40
2019-03-09T18:50:09.703Z,9.40
2019-03-09T18:52:37.011Z,9.40
2019-03-09T18:55:04.481Z,9.40
2019-03-09T18:57:31.722Z,9.40
2019-03-09T18:59:59.053Z,9.40
2019-03-09T19:02:26.458Z,9.40
2019-03-09T19:04:53.722Z,9.40
2019-03-09T19:07:20.971Z,9.40
2019-03-09T19:09:48.788Z,9.40
2019-03-09T19:12:15.891Z,9.40
2019-03-09T19:14:43.311Z,9.40
2019-03-09T19:17:10.548Z,9.40
2019-03-09T19:19:37.940Z,9.40
2019-03-09T19:22:05.582Z,9.40
2019-03-09T19:24:32.810Z,9.40
2019-03-09T19:27:00.375Z,9.40
2019-03-09T19:29:27.770Z,9.40
2019-03-09T19:31:54.868Z,9.40
2019-03-09T19:34:22.075Z,9.40
2019-03-09T19:36:49.312Z,9.40
2019-03-09T19:39:16.442Z,9.40
2019-03-09T19:41:43.829Z,9.40
2019-03-09T19:44:11.198Z,9.40
2019-03-09T19:46:38.451Z,9.40
2019-03-09T19:49:05.778Z,9.40
2019-03-09T19:51:32.992Z,9.40
2019-03-09T19:54:00.215Z,9.40
2019-03-09T19:56:27.722Z,9.40
2019-03-09T19:58:54.818Z,9.40
2019-03-09T20:01:22.083Z,9.40
2019-03-09T20:03:49.356Z,9.40
2019-03-09T20:06:16.499Z,9.40
2019-03-09T20:08:43.700Z,9.40
2019-03-09T20:11:11.049Z,9.40
2019-03-09T20:13:38.316Z,9.40
2019-03-09T20:16:05.822Z,9.40
2019-03-09T20:18:34.146Z,9.40
2019-03-09T20:21:01.267Z,9.40
2019-03-09T20:23:28.393Z,9.40
2019-03-09T20:25:55.666Z,9.40
2019-03-09T20:28:22.804Z,9.30
2019-03-09T20:30:50.168Z,9.30
2019-03-09T20:33:17.524Z,9.30
2019-03-09T20:35:44.901Z,9.30
2019-03-09T20:38:12.247Z,9.30
2019-03-09T20:40:39.519Z,9.30
2019-03-09T20:43:06.835Z,9.30
2019-03-09T20:45:33.945Z,9.30
2019-03-09T20:48:01.143Z,9.30
2019-03-09T20:50:28.472Z,9.30
2019-03-09T20:52:55.706Z,9.20
2019-03-09T20:55:22.831Z,9.20
2019-03-09T20:57:50.180Z,9.30
2019-03-09T21:00:17.392Z,9.20
2019-03-09T21:02:44.929Z,9.20
2019-03-09T21:05:12.320Z,9.20
2019-03-09T21:07:39.548Z,9.20
2019-03-09T21:10:07.999Z,9.20
2019-03-09T21:12:35.193Z,9.20
2019-03-09T21:15:02.602Z,9.20
2019-03-09T21:17:29.998Z,9.20
2019-03-09T21:19:57.527Z,9.20
2019-03-09T21:22:24.912Z,9.20
2019-03-09T21:24:52.142Z,9.20
2019-03-09T21:27:33.088Z,9.20
2019-03-09T21:30:05.396Z,9.20
2019-03-09T21:32:41.452Z,9.20
2019-03-09T21:35:17.102Z,9.20
2019-03-09T21:37:51.315Z,9.20
2019-03-09T21:40:25.326Z,9.20
2019-03-09T21:43:06.915Z,9.20
2019-03-09T21:45:49.831Z,9.20
2019-03-09T21:48:25.275Z,9.20
2019-03-09T21:51:07.272Z,9.20
2019-03-09T21:53:42.695Z,9.20
2019-03-09T21:56:17.443Z,9.20
2019-03-09T21:58:52.164Z,9.20
2019-03-09T22:01:22.972Z,9.20
2019-03-09T22:03:58.724Z,9.20
2019-03-09T22:06:31.945Z,9.20
2019-03-09T22:09:05.137Z,9.20
2019-03-09T22:11:37.308Z,9.20
2019-03-09T22:14:12.948Z,9.20
2019-03-09T22:16:45.219Z,9.20
2019-03-09T22:19:19.231Z,9.20
2019-03-09T22:21:56.413Z,9.20
2019-03-09T22:24:33.904Z,9.20
2019-03-09T22:27:20.203Z,9.20
2019-03-09T22:29:58.716Z,9.20
2019-03-09T22:32:40.919Z,9.20
2019-03-09T22:35:22.335Z,9.20
2019-03-09T22:37:58.093Z,9.20
2019-03-09T22:40:31.652Z,9.20
2019-03-09T22:43:19.931Z,9.20
2019-03-09T22:45:58.598Z,9.20
2019-03-09T22:48:36.414Z,9.20
2019-03-09T22:51:07.043Z,9.20
2019-03-09T22:53:47.285Z,9.20
2019-03-09T22:56:23.564Z,9.20
2019-03-09T22:58:59.713Z,9.20
2019-03-09T23:01:32.608Z,9.20
2019-03-09T23:04:07.787Z,9.10
2019-03-09T23:06:42.878Z,9.20
2019-03-09T23:09:16.480Z,9.20
2019-03-09T23:11:49.875Z,9.20
2019-03-09T23:14:22.453Z,9.20
2019-03-09T23:17:00.350Z,9.20
2019-03-09T23:19:37.739Z,9.10
2019-03-09T23:22:09.949Z,9.10
2019-03-09T23:24:47.599Z,9.20
2019-03-09T23:27:23.250Z,9.10
2019-03-09T23:29:53.777Z,9.10
2019-03-09T23:32:27.483Z,9.10
2019-03-09T23:34:57.907Z,9.00
2019-03-09T23:37:29.150Z,9.10
2019-03-09T23:40:02.651Z,9.10
2019-03-09T23:42:37.068Z,9.00
2019-03-09T23:45:18.043Z,9.00
2019-03-09T23:47:52.943Z,9.00
2019-03-09T23:50:36.507Z,9.00
2019-03-09T23:53:02.017Z,9.00
2019-03-09T23:55:37.543Z,9.00
2019-03-09T23:58:09.935Z,9.00
